createdAt,value
2022-10-18T00:24:43.246Z,18
2022-10-18T00:53:34.660Z,17
2022-10-18T01:22:19.456Z,17
2022-10-18T01:51:08.704Z,16
2022-10-18T02:19:57.741Z,16
2022-10-18T02:48:44.397Z,16
2022-10-18T03:17:35.119Z,14
2022-10-18T03:46:18.579Z,14
2022-10-18T04:15:00.054Z,14
2022-10-18T04:43:41.590Z,13
2022-10-18T05:12:16.319Z,13
2022-10-18T05:40:53.835Z,13
2022-10-18T06:09:41.949Z,12
2022-10-18T06:38:22.246Z,13
2022-10-18T07:07:05.167Z,11
2022-10-18T07:35:36.182Z,10
2022-10-18T08:04:16.808Z,10
2022-10-18T08:32:39.456Z,9
2022-10-18T09:01:16.220Z,8
2022-10-18T09:29:50.322Z,8
2022-10-18T09:58:27.423Z,8
2022-10-18T10:27:05.584Z,8
2022-10-18T10:55:38.214Z,9
2022-10-18T11:24:10.176Z,7
2022-10-18T11:52:52.990Z,8
2022-10-18T12:21:26.455Z,9
2022-10-18T12:49:58.112Z,8
2022-10-18T13:18:43.767Z,8
2022-10-18T13:47:02.062Z,8
2022-10-18T14:15:34.796Z,9
2022-10-18T14:44:13.838Z,8
2022-10-18T15:13:08.531Z,8
2022-10-18T15:41:16.669Z,8
2022-10-18T16:09:58.004Z,7
2022-10-18T16:38:35.309Z,9
2022-10-18T17:06:54.294Z,7
2022-10-18T17:35:33.542Z,7
2022-10-18T18:04:04.948Z,7
2022-10-18T18:32:38.901Z,7
2022-10-18T19:01:31.037Z,7
2022-10-18T19:30:12.016Z,7
2022-10-18T19:58:58.904Z,6
2022-10-18T20:27:40.086Z,6
2022-10-18T20:56:17.876Z,7
2022-10-18T21:24:51.051Z,7
2022-10-18T22:22:24.681Z,7
2022-10-18T22:51:08.008Z,7
2022-10-18T23:19:48.347Z,6
2022-10-18T23:48:37.510Z,7
